Latest Weather Observations for Laverton

IDV60901

Issued at 10:31 am EST Friday 24 May 2024 (issued every 10 minutes, with the page automatically refreshed every 10 minutes)

About weather observations | Map of Melbourne area stations | Latest observations for Melbourne area | Other Formats
Station Details ID: 087031 Name: LAVERTON RAAF Lat: -37.86 Lon: 144.76 Height: 20.1 m
Data from the previous 72 hours. | See also: Recent months at Laverton
Date/Time
EST
Temp
°C
App
Temp
°C
Dew
Point
°C
Rel
Hum
%
Delta-T
°C
Wind Press
QNH
hPa
Press
MSL
hPa
Rain since
9am
mm
Dir  Spd
km/h
Gust
km/h
Spd
kts
Gust
kts
24/10:24am 12.4 12.2 10.3 87 1.1 NW 2 7 1 4 1029.3 1029.3 0.0
24/10:00am 11.4 10.3 9.8 90 0.8 NW 6 7 3 4 1029.0 1029.0 0.0
24/09:30am 10.8 9.7 10.6 99 0.1 NW 7 9 4 5 1029.0 1029.0 0.0
24/09:24am 10.4 9.2 10.2 99 0.1 NW 7 11 4 6 1029.0 1029.0 0.0
24/09:00am 9.5 8.7 9.5 100 0.0 NW 4 9 2 5 1029.0 1029.0 0.0
24/08:30am 8.4 6.9 8.4 100 0.0 NW 6 7 3 4 1028.9 1028.9 0.0
24/08:00am 6.9 5.0 6.9 100 0.0 NW 6 7 3 4 1028.8 1028.8 0.0
24/07:30am 6.3 4.7 6.3 100 0.0 NW 4 7 2 4 1028.7 1028.7 0.0
24/07:00am 5.3 2.9 5.3 100 0.0 NW 7 9 4 5 1028.3 1028.3 0.0
24/06:30am 5.0 2.5 5.0 100 0.0 NW 7 9 4 5 1028.1 1028.1 0.0
24/06:00am 5.0 2.5 5.0 100 0.0 NW 7 9 4 5 1028.0 1028.0 0.0
24/05:30am 4.9 2.4 4.9 100 0.0 NW 7 9 4 5 1028.0 1028.0 0.0
24/05:00am 4.6 1.7 4.6 100 0.0 NW 9 11 5 6 1027.8 1027.8 0.0
24/04:30am 4.4 2.4 4.4 100 0.0 NW 4 9 2 5 1027.8 1027.8 0.0
24/04:00am 5.0 3.9 5.0 100 0.0 CALM 0 0 0 0 1027.7 1027.7 0.0
24/03:30am 5.2 2.0 5.2 100 0.0 NW 11 13 6 7 1027.9 1027.9 0.0
24/03:00am 5.0 2.1 4.9 99 0.0 NW 9 11 5 6 1028.1 1028.1 0.0
24/02:30am 5.5 2.4 5.4 99 0.0 NW 11 13 6 7 1028.2 1028.2 0.0
24/02:00am 5.8 2.4 5.7 99 0.0 NW 13 17 7 9 1028.2 1028.2 0.0
24/01:30am 5.4 2.2 5.3 99 0.0 NW 11 13 6 7 1028.3 1028.3 0.0
24/01:00am 5.7 2.6 5.6 99 0.0 WNW 11 13 6 7 1028.4 1028.4 0.0
24/12:30am 5.9 2.5 5.8 99 0.0 WNW 13 13 7 7 1028.4 1028.4 0.0
24/12:00am 5.8 2.7 5.7 99 0.0 WNW 11 13 6 7 1028.8 1028.8 0.0
 
Date/Time
EST
Temp
°C
App
Temp
°C
Dew
Point
°C
Rel
Hum
%
Delta-T
°C
Wind Press
QNH
hPa
Press
MSL
hPa
Rain since
9am
mm
Dir  Spd
km/h
Gust
km/h
Spd
kts
Gust
kts
23/11:30pm 5.9 2.5 5.8 99 0.0 WNW 13 15 7 8 1028.7 1028.7 0.0
23/11:00pm 6.3 3.3 6.2 99 0.0 WNW 11 13 6 7 1028.4 1028.4 0.0
23/10:30pm 6.6 3.7 6.5 99 0.0 NW 11 13 6 7 1028.2 1028.2 0.0
23/10:00pm 7.0 4.2 6.9 99 0.0 NW 11 13 6 7 1028.2 1028.2 0.0
23/09:30pm 8.2 6.1 8.1 99 0.0 NW 9 11 5 6 1028.2 1028.2 0.0
23/09:00pm 8.3 6.2 8.2 99 0.0 WNW 9 11 5 6 1028.2 1028.2 0.0
23/08:30pm 8.7 6.7 8.6 99 0.0 WNW 9 11 5 6 1028.3 1028.3 0.0
23/08:00pm 9.3 8.4 9.2 99 0.0 SSE 4 9 2 5 1028.1 1028.1 0.0
23/07:30pm 9.8 9.6 9.0 95 0.4 CALM 0 0 0 0 1028.1 1028.1 0.0
23/07:00pm 10.4 10.2 9.0 91 0.7 CALM 0 0 0 0 1028.0 1028.0 0.0
23/06:30pm 11.1 11.0 9.4 89 0.9 CALM 0 0 0 0 1027.8 1027.8 0.0
23/06:00pm 11.9 10.8 8.6 80 1.6 SSE 4 6 2 3 1027.7 1027.7 0.0
23/05:30pm 13.0 11.5 8.3 73 2.3 SSE 6 7 3 4 1027.5 1027.5 0.0
23/05:00pm 13.4 11.7 8.3 71 2.5 SSE 7 9 4 5 1027.5 1027.5 0.0
23/04:30pm 13.8 11.6 7.8 67 3.0 SSE 9 11 5 6 1027.3 1027.3 0.0
23/04:00pm 14.7 12.5 8.0 64 3.3 SE 9 11 5 6 1027.3 1027.3 0.0
23/03:30pm 14.4 11.8 7.9 65 3.2 SE 11 13 6 7 1027.3 1027.3 0.0
23/03:00pm 13.9 10.9 7.9 67 3.0 SE 13 17 7 9 1027.4 1027.4 0.0
23/02:30pm 14.4 12.1 9.0 70 2.7 SE 11 15 6 8 1027.3 1027.3 0.0
23/02:00pm 14.6 12.0 9.4 71 2.7 S 13 19 7 10 1027.5 1027.5 0.0
23/01:30pm 16.1 13.7 8.8 62 3.7 S 11 19 6 10 1027.7 1027.7 0.0
23/01:00pm 16.2 14.5 8.4 60 3.9 NW 7 11 4 6 1027.7 1027.7 0.0
23/12:30pm 15.2 13.0 7.7 61 3.7 W 9 17 5 9 1028.2 1028.2 0.0
23/12:00pm 15.0 13.1 7.5 61 3.7 WSW 7 13 4 7 1028.6 1028.6 0.0
23/11:30am 14.7 12.8 8.9 68 3.0 WSW 9 15 5 8 1029.0 1029.0 0.0
23/11:00am 14.3 11.7 9.5 73 2.4 SW 13 17 7 9 1029.3 1029.3 0.0
23/10:30am 13.8 12.0 10.8 82 1.6 WSW 11 13 6 7 1029.3 1029.3 0.0
23/10:00am 12.8 10.7 11.2 90 0.8 W 13 17 7 9 1029.2 1029.2 0.0
23/09:30am 11.6 9.6 11.4 99 0.1 W 13 17 7 9 1029.1 1029.1 0.0
23/09:00am 10.5 8.2 10.5 100 0.0 W 13 19 7 10 1029.2 1029.2 0.2
23/08:30am 10.0 7.6 10.0 100 0.0 W 13 17 7 9 1029.0 1029.0 0.2
23/08:00am 9.8 7.7 9.8 100 0.0 WSW 11 15 6 8 1028.8 1028.8 0.2
23/07:30am 9.8 7.7 9.8 100 0.0 W 11 15 6 8 1028.5 1028.5 0.2
23/07:00am 9.4 8.0 9.4 100 0.0 W 7 11 4 6 1028.1 1028.1 0.2
23/06:30am 8.6 6.6 8.6 100 0.0 WNW 9 13 5 7 1027.9 1027.9 0.2
23/06:00am 9.7 8.3 9.7 100 0.0 WNW 7 9 4 5 1027.8 1027.8 0.2
23/05:30am 10.0 8.3 10.0 100 0.0 WNW 9 11 5 6 1027.6 1027.6 0.2
23/05:00am 10.9 9.1 10.9 100 0.0 WNW 11 13 6 7 1027.6 1027.6 0.2
23/04:32am 11.3 10.0 11.3 100 0.0 W 9 13 5 7 1027.6 1027.6 0.2
23/04:30am 11.3 10.0 11.3 100 0.0 W 9 13 5 7 1027.6 1027.6 0.2
23/04:15am 11.3 10.4 11.3 100 0.0 WSW 7 11 4 6 1027.5 1027.5 0.2
23/04:00am 11.4 10.5 11.4 100 0.0 WSW 7 9 4 5 1027.4 1027.4 0.2
23/03:46am 11.4 10.1 11.4 100 0.0 WSW 9 11 5 6 1027.5 1027.5 0.2
23/03:30am 11.5 10.6 11.5 100 0.0 WSW 7 11 4 6 1027.6 1027.6 0.2
23/03:05am 11.4 10.5 11.4 100 0.0 WSW 7 9 4 5 1027.6 1027.6 0.2
23/03:00am 11.4 10.5 11.4 100 0.0 WSW 7 9 4 5 1027.6 1027.6 0.2
23/02:49am 11.4 10.5 11.4 100 0.0 WSW 7 11 4 6 1027.5 1027.5 0.2
23/02:30am 11.5 9.9 11.5 100 0.0 WSW 11 15 6 8 1027.6 1027.6 0.2
23/02:29am 11.6 10.0 11.6 100 0.0 WSW 11 15 6 8 1027.6 1027.6 0.2
23/02:00am 11.6 9.6 11.6 100 0.0 SW 13 17 7 9 1027.6 1027.6 0.2
23/01:30am 11.9 10.8 11.9 100 0.0 WSW 9 13 5 7 1027.5 1027.5 0.2
23/01:20am 11.9 10.8 11.9 100 0.0 WSW 9 13 5 7 1027.5 1027.5 0.2
23/01:00am 12.1 10.7 12.1 100 0.0 WSW 11 15 6 8 1027.5 1027.5 0.2
23/12:47am 12.1 11.0 12.1 100 0.0 W 9 15 5 8 1027.6 1027.6 0.2
23/12:30am 12.0 11.3 12.0 100 0.0 W 7 13 4 7 1027.5 1027.5 0.2
23/12:28am 11.9 11.2 11.9 100 0.0 W 7 9 4 5 1027.5 1027.5 0.2
23/12:00am 11.7 10.9 11.7 100 0.0 WNW 7 9 4 5 1027.5 1027.5 0.2
 
Date/Time
EST
Temp
°C
App
Temp
°C
Dew
Point
°C
Rel
Hum
%
Delta-T
°C
Wind Press
QNH
hPa
Press
MSL
hPa
Rain since
9am
mm
Dir  Spd
km/h
Gust
km/h
Spd
kts
Gust
kts
22/11:30pm 11.5 10.3 11.5 100 0.0 WNW 9 9 5 5 1027.5 1027.5 0.2
22/11:15pm 11.5 10.6 11.5 100 0.0 WNW 7 9 4 5 1027.4 1027.4 0.2
22/11:00pm 11.5 10.6 11.5 100 0.0 WNW 7 9 4 5 1027.4 1027.4 0.2
22/10:30pm 11.7 10.9 11.7 100 0.0 S 7 7 4 4 1027.5 1027.5 0.2
22/10:00pm 11.9 11.4 11.9 100 0.0 S 6 6 3 3 1027.6 1027.6 0.2
22/09:30pm 12.0 12.6 12.0 100 0.0 CALM 0 0 0 0 1027.7 1027.7 0.2
22/09:00pm 12.4 13.2 12.4 100 0.0 CALM 0 4 0 2 1027.8 1027.8 0.2
22/08:30pm 12.3 11.6 12.1 99 0.1 S 7 11 4 6 1027.8 1027.8 0.2
22/08:00pm 12.6 11.1 12.0 96 0.3 S 11 17 6 9 1027.8 1027.8 0.2
22/07:30pm 12.9 12.0 11.3 90 0.8 SW 7 11 4 6 1027.6 1027.6 0.2
22/07:00pm 13.0 12.2 10.9 87 1.1 SW 6 9 3 5 1027.6 1027.6 0.2
22/06:30pm 13.0 12.2 11.1 88 1.0 SSW 6 9 3 5 1027.4 1027.4 0.2
22/06:00pm 13.0 12.2 11.2 89 0.9 SSW 6 7 3 4 1027.2 1027.2 0.2
22/05:30pm 13.0 12.1 11.2 89 0.9 SW 7 11 4 6 1027.2 1027.2 0.2
22/05:00pm 13.1 11.7 11.0 87 1.1 SW 9 13 5 7 1027.0 1027.0 0.2
22/04:30pm 13.8 12.5 11.3 85 1.3 SSW 9 15 5 8 1026.8 1026.8 0.2
22/04:00pm 14.2 12.3 10.6 79 1.9 SSW 11 15 6 8 1026.6 1026.6 0.2
22/03:30pm 14.6 13.6 11.0 79 1.9 SE 7 13 4 7 1026.6 1026.6 0.2
22/03:00pm 14.4 13.0 10.8 79 1.9 SSE 9 13 5 7 1026.6 1026.6 0.2
22/02:30pm 15.0 13.3 10.0 72 2.6 SSE 9 15 5 8 1026.6 1026.6 0.2
22/02:00pm 15.2 13.5 11.2 77 2.1 SSE 11 15 6 8 1026.8 1026.8 0.2
22/01:30pm 15.3 13.2 11.3 77 2.1 S 13 17 7 9 1027.0 1027.0 0.2
22/01:00pm 16.0 15.7 10.1 68 3.1 SW 2 9 1 5 1027.1 1027.1 0.2
22/12:30pm 15.0 14.1 9.4 69 2.9 WSW 4 9 2 5 1027.5 1027.5 0.2
22/12:00pm 14.4 13.4 10.2 76 2.2 W 6 13 3 7 1027.9 1027.9 0.0
22/11:30am 14.9 13.8 10.7 76 2.2 SSW 7 11 4 6 1028.4 1028.4 0.0
22/11:00am 14.3 13.7 10.5 78 2.0 N 4 9 2 5 1028.8 1028.8 0.0
22/10:30am 13.5 12.6 10.7 83 1.5 NW 6 9 3 5 1028.7 1028.7 0.0
22/10:00am 12.8 12.0 11.2 90 0.8 NW 6 7 3 4 1028.7 1028.7 0.0
22/09:30am 11.5 10.6 11.5 100 0.0 NW 7 9 4 5 1029.0 1029.0 0.0
22/09:00am 9.9 9.9 9.9 100 0.0 CALM 0 0 0 0 1028.9 1028.9 0.0
22/08:30am 8.3 6.6 8.3 100 0.0 NW 7 9 4 5 1028.6 1028.6 0.0
22/08:00am 6.3 4.3 6.3 100 0.0 NW 6 7 3 4 1028.7 1028.7 0.0
22/07:30am 5.1 2.9 5.1 100 0.0 NW 6 7 3 4 1028.6 1028.6 0.0
22/07:00am 4.9 2.4 4.9 100 0.0 NW 7 9 4 5 1028.6 1028.6 0.0
22/06:30am 4.9 2.4 4.9 100 0.0 NW 7 7 4 4 1028.2 1028.2 0.0
22/06:00am 4.4 3.2 4.4 100 0.0 CALM 0 0 0 0 1028.3 1028.3 0.0
22/05:30am 4.8 2.5 4.8 100 0.0 NW 6 7 3 4 1028.0 1028.0 0.0
22/05:00am 4.7 2.8 4.7 100 0.0 NW 4 7 2 4 1028.1 1028.1 0.0
22/04:30am 4.8 2.5 4.8 100 0.0 NW 6 9 3 5 1027.9 1027.9 0.0
22/04:00am 5.6 3.8 5.6 100 0.0 NW 4 7 2 4 1027.8 1027.8 0.0
22/03:30am 5.8 3.5 5.8 100 0.0 NW 7 7 4 4 1027.8 1027.8 0.0
22/03:00am 6.4 4.2 6.4 100 0.0 NW 7 9 4 5 1028.1 1028.1 0.0
22/02:30am 6.4 4.4 6.4 100 0.0 NW 6 9 3 5 1028.2 1028.2 0.0
22/02:00am 7.0 4.6 7.0 100 0.0 WNW 9 11 5 6 1028.3 1028.3 0.0
22/01:30am 7.1 4.7 7.1 100 0.0 WNW 9 11 5 6 1028.6 1028.6 0.0
22/01:00am 6.9 4.9 6.9 100 0.0 WNW 7 9 4 5 1028.9 1028.9 0.0
22/12:30am 6.6 4.1 6.6 100 0.0 WNW 9 11 5 6 1029.1 1029.1 0.0
22/12:00am 6.6 3.7 6.6 100 0.0 WNW 11 13 6 7 1029.4 1029.4 0.0
 
Date/Time
EST
Temp
°C
App
Temp
°C
Dew
Point
°C
Rel
Hum
%
Delta-T
°C
Wind Press
QNH
hPa
Press
MSL
hPa
Rain since
9am
mm
Dir  Spd
km/h
Gust
km/h
Spd
kts
Gust
kts
21/11:30pm 6.6 3.7 6.6 100 0.0 WNW 11 13 6 7 1029.6 1029.6 0.0
21/11:00pm 6.3 3.3 6.2 99 0.0 SW 11 13 6 7 1029.7 1029.7 0.0
21/10:30pm 6.9 4.1 6.8 99 0.0 SW 11 11 6 6 1029.7 1029.7 0.0
21/10:00pm 7.1 4.3 7.0 99 0.0 SW 11 11 6 6 1029.9 1029.9 0.0
21/09:30pm 7.5 4.8 7.4 99 0.0 SW 11 13 6 7 1029.8 1029.8 0.0
21/09:00pm 7.2 4.4 7.1 99 0.0 SW 11 11 6 6 1029.7 1029.7 0.0
21/08:30pm 7.7 5.7 7.3 97 0.2 SW 7 9 4 5 1029.7 1029.7 0.0
21/08:00pm 9.1 7.3 7.9 92 0.6 SW 7 9 4 5 1029.8 1029.8 0.0
21/07:30pm 9.6 7.7 7.4 86 1.0 SW 7 11 4 6 1029.8 1029.8 0.0
21/07:00pm 10.0 8.0 6.9 81 1.4 SSW 7 11 4 6 1029.8 1029.8 0.0
21/06:30pm 10.4 7.9 6.7 78 1.7 SSW 9 13 5 7 1029.7 1029.7 0.0
21/06:00pm 10.9 8.2 7.2 78 1.8 SSW 11 15 6 8 1029.7 1029.7 0.0
21/05:30pm 11.4 8.9 6.7 73 2.2 SSW 9 11 5 6 1029.5 1029.5 0.0
21/05:00pm 12.1 8.8 6.2 67 2.8 S 13 17 7 9 1029.4 1029.4 0.0
21/04:30pm 13.0 9.1 7.0 67 2.9 S 17 26 9 14 1029.3 1029.3 0.0
21/04:00pm 13.3 10.7 7.7 69 2.7 SSE 11 15 6 8 1029.3 1029.3 0.0
21/03:30pm 13.4 9.9 7.4 67 2.9 S 15 22 8 12 1029.4 1029.4 0.0
21/03:00pm 13.7 10.5 6.8 63 3.3 S 13 19 7 10 1029.3 1029.3 0.0
21/02:30pm 13.8 11.2 7.8 67 3.0 S 11 17 6 9 1029.4 1029.4 0.0
21/02:00pm 13.6 10.7 8.0 69 2.8 SSW 13 19 7 10 1029.5 1029.5 0.0
21/01:30pm 13.6 11.1 8.2 70 2.7 SSW 11 17 6 9 1029.6 1029.6 0.0
21/01:00pm 13.5 10.9 7.9 69 2.7 SW 11 17 6 9 1030.0 1030.0 0.0
21/12:30pm 13.1 10.6 8.4 73 2.3 SW 11 15 6 8 1030.4 1030.4 0.0
21/12:00pm 13.2 11.4 10.7 85 1.3 WSW 11 17 6 9 1030.7 1030.7 0.0
21/11:30am 12.8 11.5 11.4 91 0.7 W 9 15 5 8 1031.1 1031.1 0.0
21/11:00am 12.2 10.7 12.0 99 0.1 WSW 11 15 6 8 1031.1 1031.1 0.0

Latest Capital City Observations: Canberra | Sydney | Melbourne | Brisbane | Adelaide | Perth | Hobart | Darwin

Other formats

Comma delimited format used in spreadsheet applications
http://www.bom.gov.au/fwo/IDV60901/IDV60901.94865.axf

JavaScript Object Notation format (JSON) in row-major order
http://www.bom.gov.au/fwo/IDV60901/IDV60901.94865.json

Data quality

Most of these data are generated automatically and are frequently updated. Quality checks on data are not normally performed. It is possible for incorrect values to appear. Refer to information at About Latest Weather Observations and please check the disclaimer before using these data.